createdAt,value
2023-08-09T00:03:15.295Z,99848.61
2023-08-09T00:07:18.480Z,99848.46
2023-08-09T00:11:21.895Z,99852.49
2023-08-09T00:15:25.934Z,99855.20
2023-08-09T00:19:30.165Z,99858.17
2023-08-09T00:23:33.679Z,99857.72
2023-08-09T00:27:37.303Z,99859.21
2023-08-09T00:31:42.293Z,99859.64
2023-08-09T00:35:47.538Z,99860.26
2023-08-09T00:39:51.098Z,99859.15
2023-08-09T00:44:20.636Z,99862.39
2023-08-09T00:48:24.576Z,99863.85
2023-08-09T00:52:28.767Z,99865.55
2023-08-09T00:56:32.526Z,99873.18
2023-08-09T01:00:55.989Z,99862.68
2023-08-09T01:05:00.217Z,99857.42
2023-08-09T01:09:19.595Z,99849.04
2023-08-09T01:13:25.367Z,99842.64
2023-08-09T01:17:31.041Z,99844.67
2023-08-09T01:21:39.512Z,99845.94
2023-08-09T01:26:04.385Z,99845.03
2023-08-09T01:30:21.587Z,99853.10
2023-08-09T01:34:45.873Z,99853.80
2023-08-09T01:39:14.280Z,99864.13
2023-08-09T01:43:19.275Z,99861.30
2023-08-09T01:47:23.599Z,99857.95
2023-08-09T01:51:49.078Z,99860.80
2023-08-09T01:56:10.028Z,99859.16
2023-08-09T02:00:39.912Z,99861.35
2023-08-09T02:05:23.491Z,99855.35
2023-08-09T02:09:49.628Z,99860.67
2023-08-09T02:13:53.209Z,99855.81
2023-08-09T02:18:16.601Z,99857.58
2023-08-09T02:22:20.045Z,99853.45
2023-08-09T02:26:23.475Z,99853.17
2023-08-09T02:30:27.079Z,99856.39
2023-08-09T02:34:50.924Z,99855.89
2023-08-09T02:38:54.461Z,99860.37
2023-08-09T02:42:57.983Z,99866.81
2023-08-09T02:47:04.166Z,99870.94
2023-08-09T02:51:12.120Z,99881.48
2023-08-09T02:55:21.646Z,99886.38
2023-08-09T02:59:37.141Z,99886.59
2023-08-09T03:04:08.949Z,99894.00
2023-08-09T03:08:32.390Z,99898.52
2023-08-09T03:12:48.692Z,99892.41
2023-08-09T03:16:52.279Z,99893.27
2023-08-09T03:21:15.869Z,99886.38
2023-08-09T03:25:19.974Z,99888.80
2023-08-09T03:29:30.339Z,99890.89
2023-08-09T03:34:19.628Z,99891.24
2023-08-09T03:38:25.184Z,99883.67
2023-08-09T03:42:28.636Z,99886.06
2023-08-09T03:46:34.217Z,99889.17
2023-08-09T03:50:38.382Z,99890.68
2023-08-09T03:54:42.041Z,99897.84
2023-08-09T03:59:12.702Z,99899.73
2023-08-09T04:03:16.719Z,99906.92
2023-08-09T04:07:44.194Z,99911.59
2023-08-09T04:12:08.332Z,99917.11
2023-08-09T04:16:14.162Z,99923.08
2023-08-09T04:20:20.474Z,99931.80
2023-08-09T04:24:24.053Z,99928.63
2023-08-09T04:28:30.569Z,99930.80
2023-08-09T04:32:42.399Z,99937.66
2023-08-09T04:37:03.565Z,99942.94
2023-08-09T04:41:28.414Z,99939.29
2023-08-09T04:45:31.885Z,99934.77
2023-08-09T04:50:11.838Z,99933.65
2023-08-09T04:54:15.321Z,99934.14
2023-08-09T04:58:18.878Z,99938.66
2023-08-09T05:02:59.070Z,99948.13
2023-08-09T05:07:13.975Z,99950.17
2023-08-09T05:11:19.730Z,99954.52
2023-08-09T05:15:27.347Z,99952.13
2023-08-09T05:19:31.459Z,99942.87
2023-08-09T05:23:35.097Z,99938.20
2023-08-09T05:27:39.715Z,99932.23
2023-08-09T05:31:43.642Z,99932.59
2023-08-09T05:35:47.223Z,99939.02
2023-08-09T05:39:50.951Z,99943.31
2023-08-09T05:43:54.467Z,99955.06
2023-08-09T05:47:58.426Z,99953.50
2023-08-09T05:52:02.966Z,99950.41
2023-08-09T05:56:07.476Z,99943.17
2023-08-09T06:00:17.212Z,99943.21
2023-08-09T06:04:21.544Z,99944.32
2023-08-09T06:08:25.259Z,99944.33
2023-08-09T06:12:28.852Z,99943.94
2023-08-09T06:16:32.482Z,99949.19
2023-08-09T06:20:39.504Z,99950.74
2023-08-09T06:24:43.069Z,99952.02
2023-08-09T06:28:46.462Z,99949.32
2023-08-09T06:32:50.962Z,99949.56
2023-08-09T06:36:59.469Z,99958.80
2023-08-09T06:41:02.875Z,99960.20
2023-08-09T06:45:26.485Z,99955.95
2023-08-09T06:49:39.265Z,99948.12
2023-08-09T06:53:43.174Z,99940.68
2023-08-09T06:57:46.758Z,99943.91
2023-08-09T07:01:51.486Z,99951.38
2023-08-09T07:19:35.348Z,99966.85
2023-08-09T07:23:55.013Z,99966.83
2023-08-09T07:28:03.343Z,99962.16
2023-08-09T07:32:07.993Z,99960.56
2023-08-09T07:36:13.000Z,99959.97
2023-08-09T07:40:19.647Z,99958.91
2023-08-09T07:44:24.541Z,99960.39
2023-08-09T07:48:29.753Z,99963.75
2023-08-09T07:52:35.559Z,99959.48
2023-08-09T07:56:40.438Z,99967.96
2023-08-09T08:00:50.132Z,99978.94
2023-08-09T08:04:59.154Z,99985.04
2023-08-09T08:09:03.703Z,99986.55
2023-08-09T08:13:11.859Z,99985.06
2023-08-09T08:17:16.231Z,99990.48
2023-08-09T08:21:19.956Z,99990.92
2023-08-09T08:25:27.275Z,99985.16
2023-08-09T08:29:33.654Z,99980.52
2023-08-09T08:33:37.803Z,99985.31
2023-08-09T08:37:43.499Z,99986.84
2023-08-09T08:41:51.305Z,99986.35
2023-08-09T08:45:57.062Z,99990.61
2023-08-09T08:50:01.112Z,99989.13
2023-08-09T08:54:05.363Z,99992.17
2023-08-09T08:58:10.514Z,99992.34
2023-08-09T09:02:14.596Z,99994.29
2023-08-09T09:06:18.301Z,99993.05
2023-08-09T09:10:23.047Z,99995.36
2023-08-09T09:14:26.843Z,99997.70
2023-08-09T09:18:30.243Z,100001.57
2023-08-09T09:22:35.842Z,100004.48
2023-08-09T09:26:53.947Z,100005.06
2023-08-09T09:30:58.793Z,100002.93
2023-08-09T09:35:02.367Z,100000.08
2023-08-09T09:39:14.868Z,99995.08
2023-08-09T09:43:18.294Z,99995.79
2023-08-09T09:47:26.443Z,99993.96
2023-08-09T09:51:39.069Z,99997.18
2023-08-09T09:55:42.862Z,99989.86
2023-08-09T09:59:47.887Z,99980.34
2023-08-09T10:03:57.306Z,99978.63
2023-08-09T10:08:14.966Z,99973.13
2023-08-09T10:12:21.544Z,99970.48
2023-08-09T10:16:27.931Z,99962.25
2023-08-09T10:20:33.359Z,99954.84
2023-08-09T10:24:52.000Z,99948.58
2023-08-09T10:29:18.064Z,99942.64
2023-08-09T10:33:21.717Z,99939.20
2023-08-09T10:37:29.398Z,99946.27
2023-08-09T10:41:32.799Z,99934.83
2023-08-09T10:45:38.506Z,99939.75
2023-08-09T10:49:54.785Z,99941.55
2023-08-09T10:54:06.888Z,99938.52
2023-08-09T10:58:16.261Z,99937.42
2023-08-09T11:02:20.109Z,99936.36
2023-08-09T11:06:42.340Z,99936.63
2023-08-09T11:10:47.840Z,99935.52
2023-08-09T11:14:51.349Z,99933.11
2023-08-09T11:19:20.100Z,99932.30
2023-08-09T11:23:34.420Z,99929.56
2023-08-09T11:27:40.781Z,99929.90
2023-08-09T11:31:48.794Z,99933.20
2023-08-09T11:35:53.936Z,99927.20
2023-08-09T11:39:57.440Z,99922.27
2023-08-09T11:44:05.538Z,99920.08
2023-08-09T11:48:09.671Z,99913.07
2023-08-09T11:52:18.063Z,99909.52
2023-08-09T11:56:26.719Z,99898.42
2023-08-09T12:00:30.569Z,99902.43
2023-08-09T12:04:34.901Z,99899.46
2023-08-09T12:08:41.930Z,99889.80
2023-08-09T12:12:48.986Z,99893.26
2023-08-09T12:16:53.810Z,99894.17
2023-08-09T12:20:57.557Z,99890.27
2023-08-09T12:25:03.411Z,99876.59
2023-08-09T12:29:09.037Z,99871.13
2023-08-09T12:33:16.101Z,99867.87
2023-08-09T12:37:20.062Z,99869.58
2023-08-09T12:41:23.812Z,99877.20
2023-08-09T12:45:30.556Z,99874.34
2023-08-09T12:49:34.923Z,99871.23
2023-08-09T12:53:40.974Z,99875.23
2023-08-09T12:57:46.567Z,99873.99
2023-08-09T13:01:51.029Z,99876.86
2023-08-09T13:05:54.985Z,99885.40
2023-08-09T13:10:13.434Z,99899.16
2023-08-09T13:14:19.707Z,99924.45
2023-08-09T13:18:37.125Z,99947.88
2023-08-09T13:22:55.199Z,99958.67
2023-08-09T13:43:46.490Z,99997.02
2023-08-09T13:47:51.892Z,99995.30
2023-08-09T13:51:57.411Z,100005.35
2023-08-09T13:56:19.279Z,100008.09
2023-08-09T14:00:25.666Z,100007.16
2023-08-09T14:04:43.922Z,100016.08
2023-08-09T14:08:47.927Z,100016.27
2023-08-09T14:13:00.100Z,100020.67
2023-08-09T14:17:11.531Z,100021.77
2023-08-09T14:21:16.601Z,100025.77
2023-08-09T14:25:33.742Z,100026.67
2023-08-09T14:29:47.116Z,100024.41
2023-08-09T14:33:52.702Z,100021.41
2023-08-09T14:38:03.912Z,100024.20
2023-08-09T14:42:11.489Z,100017.98
2023-08-09T14:46:25.943Z,100010.43
2023-08-09T14:50:31.215Z,100007.27
2023-08-09T14:54:38.520Z,100010.82
2023-08-09T15:03:09.967Z,100010.59
2023-08-09T15:07:18.405Z,100008.41
2023-08-09T15:11:21.990Z,100006.40
2023-08-09T15:15:28.868Z,100011.15
2023-08-09T15:19:32.324Z,100018.84
2023-08-09T15:23:37.878Z,100021.06
2023-08-09T15:27:42.919Z,100022.52
2023-08-09T15:31:46.285Z,100017.83
2023-08-09T15:35:51.168Z,100018.98
2023-08-09T15:39:54.478Z,100023.58
2023-08-09T15:44:01.161Z,100020.98
2023-08-09T15:48:05.496Z,100019.48
2023-08-09T15:52:11.832Z,100018.90
2023-08-09T15:56:26.711Z,100027.65
2023-08-09T16:00:53.960Z,100025.13
2023-08-09T16:05:08.556Z,100033.20
2023-08-09T16:09:30.315Z,100033.29
2023-08-09T16:13:48.479Z,100035.41
2023-08-09T16:17:52.884Z,100031.41
2023-08-09T16:22:11.889Z,100027.84
2023-08-09T16:26:17.133Z,100030.42
2023-08-09T16:30:28.814Z,100032.52
2023-08-09T16:34:37.808Z,100028.27
2023-08-09T16:38:46.170Z,100028.19
2023-08-09T16:43:16.193Z,100029.05
2023-08-09T17:26:11.853Z,100050.04
2023-08-09T17:30:15.833Z,100054.04
2023-08-09T17:34:19.389Z,100057.93
2023-08-09T17:38:27.866Z,100056.81
2023-08-09T17:42:32.476Z,100057.64
2023-08-09T17:46:37.356Z,100061.50
2023-08-09T17:50:40.580Z,100060.75
2023-08-09T17:54:43.719Z,100068.08
2023-08-09T17:58:45.813Z,100073.26
2023-08-09T18:02:49.797Z,100078.86
2023-08-09T18:06:51.896Z,100077.65
2023-08-09T18:10:56.056Z,100067.55
2023-08-09T18:14:58.017Z,100062.33
2023-08-09T18:19:00.831Z,100063.40
2023-08-09T18:23:03.581Z,100065.48
2023-08-09T18:27:06.041Z,100065.28
2023-08-09T18:31:15.677Z,100070.84
2023-08-09T18:35:19.306Z,100078.56
2023-08-09T18:39:21.600Z,100093.13
2023-08-09T18:43:24.999Z,100098.75
2023-08-09T18:47:26.964Z,100114.64
2023-08-09T18:51:30.241Z,100121.29
2023-08-09T18:55:48.610Z,100133.38
2023-08-09T18:59:51.396Z,100132.71
2023-08-09T19:03:56.465Z,100140.83
2023-08-09T19:08:04.776Z,100148.07
2023-08-09T19:12:18.876Z,100148.48
2023-08-09T19:16:38.489Z,100152.24
2023-08-09T19:20:56.035Z,100145.52
2023-08-09T19:24:59.396Z,100146.02
2023-08-09T19:29:05.126Z,100152.42
2023-08-09T19:33:11.292Z,100149.39
2023-08-09T19:37:15.944Z,100151.32
2023-08-09T19:41:32.422Z,100150.20
2023-08-09T19:45:35.113Z,100153.73
2023-08-09T19:49:39.798Z,100158.30
2023-08-09T19:53:41.784Z,100158.08
2023-08-09T19:57:43.803Z,100160.55
2023-08-09T20:01:52.115Z,100165.63
2023-08-09T20:06:18.623Z,100166.49
2023-08-09T20:10:20.577Z,100167.96
2023-08-09T20:14:23.128Z,100168.76
2023-08-09T20:18:25.802Z,100173.38
2023-08-09T20:22:29.972Z,100176.72
2023-08-09T20:26:31.846Z,100176.70
2023-08-09T20:30:35.905Z,100181.49
2023-08-09T20:34:40.470Z,100181.17
2023-08-09T20:38:44.374Z,100178.73
2023-08-09T20:42:46.595Z,100175.63
2023-08-09T20:46:51.254Z,100182.05
2023-08-09T20:50:57.541Z,100180.13
2023-08-09T20:54:59.687Z,100178.60
2023-08-09T20:59:11.661Z,100183.93
2023-08-09T21:03:26.164Z,100189.14
2023-08-09T21:07:38.930Z,100192.39
2023-08-09T21:11:42.299Z,100185.69
2023-08-09T21:15:50.888Z,100192.42
2023-08-09T21:19:54.537Z,100201.55
2023-08-09T21:24:29.216Z,100207.30
2023-08-09T21:28:29.486Z,100212.09
2023-08-09T21:32:32.443Z,100213.86
2023-08-09T21:36:46.391Z,100217.92
2023-08-09T21:40:59.848Z,100225.59
2023-08-09T21:45:08.507Z,100230.29
2023-08-09T21:49:11.987Z,100235.05
2023-08-09T21:53:14.452Z,100235.98
2023-08-09T21:57:16.818Z,100239.02
2023-08-09T22:01:28.379Z,100245.43
2023-08-09T22:05:30.693Z,100251.70
2023-08-09T22:09:32.775Z,100257.44
2023-08-09T22:13:40.785Z,100256.86
2023-08-09T22:17:43.014Z,100258.43
2023-08-09T22:21:58.601Z,100261.90
2023-08-09T22:26:10.155Z,100258.98
2023-08-09T22:30:13.123Z,100259.69
2023-08-09T22:34:21.425Z,100264.96
2023-08-09T22:38:24.881Z,100274.34
2023-08-09T22:42:29.015Z,100275.80
2023-08-09T22:46:35.984Z,100273.73
2023-08-09T22:50:37.958Z,100272.52
2023-08-09T22:54:42.456Z,100278.89
2023-08-09T22:58:44.523Z,100277.10
2023-08-09T23:02:48.062Z,100276.58
2023-08-09T23:06:50.898Z,100273.05
2023-08-09T23:10:55.914Z,100270.52
2023-08-09T23:14:59.391Z,100271.00
2023-08-09T23:19:04.160Z,100277.46
2023-08-09T23:23:06.716Z,100282.67
2023-08-09T23:27:09.579Z,100283.59
2023-08-09T23:31:11.547Z,100284.49
2023-08-09T23:35:15.270Z,100290.77
2023-08-09T23:39:17.280Z,100300.26
2023-08-09T23:43:19.488Z,100306.27
2023-08-09T23:47:22.432Z,100312.30
2023-08-09T23:51:24.415Z,100320.14
2023-08-09T23:55:28.839Z,100323.73
2023-08-09T23:59:31.232Z,100326.08
